Beryl Junction, Utah
Current Conditions -  °F | °C
As of 7:53 PM on Sunday 21 Dec 2014 (Local Time) from KCDC Reporting Station
Scattered Clouds Scattered Clouds  
Wind Chill: 40°   Ceiling: Unl
Heat Index: 44°   Visibility: 10mi
Dew Point: 34°   Wind: 7mph
Humidity: 68%   Direction: 150°SSE
Pressure: 30.06"   Gusts: NA
Location:  38.0286°N, 113.572°W
Report Text: KCDC 220253Z AUTO 15006KT 10SM SCT070 07/01 A3006 RMK AO2 SLP178 T00670011 53003
Loading
Personal Weather Stations






























Interactive Weather Map New forecast layout! Learn more

10-Day Weather Forecast

Advertisements
Track Severe Weather on mobile